sensor_id;sensor_type;location;lat;lon;timestamp;P1;durP1;ratioP1;P2;durP2;ratioP2
74293;SDS011;64044;59.904;10.738;2024-02-16T00:00:17;1.75;;;0.60;;
74293;SDS011;64044;59.904;10.738;2024-02-16T00:02:43;0.80;;;0.60;;
74293;SDS011;64044;59.904;10.738;2024-02-16T00:05:11;2.30;;;0.90;;
74293;SDS011;64044;59.904;10.738;2024-02-16T00:07:40;0.40;;;0.40;;
74293;SDS011;64044;59.904;10.738;2024-02-16T00:10:06;1.92;;;0.70;;
74293;SDS011;64044;59.904;10.738;2024-02-16T00:12:33;0.77;;;0.50;;
74293;SDS011;64044;59.904;10.738;2024-02-16T00:15:00;0.40;;;0.40;;
74293;SDS011;64044;59.904;10.738;2024-02-16T00:17:26;1.10;;;0.77;;
74293;SDS011;64044;59.904;10.738;2024-02-16T00:19:53;0.68;;;0.60;;
74293;SDS011;64044;59.904;10.738;2024-02-16T00:22:19;1.05;;;0.63;;
74293;SDS011;64044;59.904;10.738;2024-02-16T00:24:45;1.88;;;0.70;;
74293;SDS011;64044;59.904;10.738;2024-02-16T00:27:11;1.25;;;0.70;;
74293;SDS011;64044;59.904;10.738;2024-02-16T00:29:37;1.25;;;0.40;;
74293;SDS011;64044;59.904;10.738;2024-02-16T00:32:05;0.60;;;0.35;;
74293;SDS011;64044;59.904;10.738;2024-02-16T00:34:32;1.85;;;0.50;;
74293;SDS011;64044;59.904;10.738;2024-02-16T00:36:59;2.28;;;0.70;;
74293;SDS011;64044;59.904;10.738;2024-02-16T00:39:25;0.63;;;0.50;;
74293;SDS011;64044;59.904;10.738;2024-02-16T00:41:51;0.70;;;0.40;;
74293;SDS011;64044;59.904;10.738;2024-02-16T00:44:17;0.77;;;0.40;;
74293;SDS011;64044;59.904;10.738;2024-02-16T00:46:43;0.50;;;0.50;;
74293;SDS011;64044;59.904;10.738;2024-02-16T00:49:09;1.77;;;0.60;;
74293;SDS011;64044;59.904;10.738;2024-02-16T00:51:35;1.10;;;0.60;;
74293;SDS011;64044;59.904;10.738;2024-02-16T00:54:06;0.65;;;0.60;;
74293;SDS011;64044;59.904;10.738;2024-02-16T00:56:34;0.98;;;0.70;;
74293;SDS011;64044;59.904;10.738;2024-02-16T00:59:00;0.35;;;0.30;;
74293;SDS011;64044;59.904;10.738;2024-02-16T01:01:26;0.43;;;0.40;;
74293;SDS011;64044;59.904;10.738;2024-02-16T01:03:52;0.40;;;0.30;;
74293;SDS011;64044;59.904;10.738;2024-02-16T01:06:18;0.43;;;0.43;;
74293;SDS011;64044;59.904;10.738;2024-02-16T01:08:44;0.60;;;0.30;;
74293;SDS011;64044;59.904;10.738;2024-02-16T01:11:10;1.23;;;0.30;;
74293;SDS011;64044;59.904;10.738;2024-02-16T01:13:35;0.38;;;0.38;;
74293;SDS011;64044;59.904;10.738;2024-02-16T01:16:02;0.45;;;0.40;;
74293;SDS011;64044;59.904;10.738;2024-02-16T01:18:28;1.02;;;0.22;;
74293;SDS011;64044;59.904;10.738;2024-02-16T01:20:55;0.30;;;0.20;;
74293;SDS011;64044;59.904;10.738;2024-02-16T01:23:20;0.30;;;0.30;;
74293;SDS011;64044;59.904;10.738;2024-02-16T01:25:46;0.47;;;0.30;;
74293;SDS011;64044;59.904;10.738;2024-02-16T01:28:13;1.30;;;0.30;;
74293;SDS011;64044;59.904;10.738;2024-02-16T01:30:39;0.75;;;0.30;;
74293;SDS011;64044;59.904;10.738;2024-02-16T01:33:06;0.85;;;0.40;;
74293;SDS011;64044;59.904;10.738;2024-02-16T01:35:32;1.15;;;0.55;;
74293;SDS011;64044;59.904;10.738;2024-02-16T01:37:58;0.30;;;0.30;;
74293;SDS011;64044;59.904;10.738;2024-02-16T01:40:24;0.80;;;0.30;;
74293;SDS011;64044;59.904;10.738;2024-02-16T01:42:51;0.60;;;0.40;;
74293;SDS011;64044;59.904;10.738;2024-02-16T01:45:20;0.60;;;0.40;;
74293;SDS011;64044;59.904;10.738;2024-02-16T01:47:47;1.77;;;0.30;;
74293;SDS011;64044;59.904;10.738;2024-02-16T01:50:15;0.57;;;0.50;;
74293;SDS011;64044;59.904;10.738;2024-02-16T01:52:42;0.43;;;0.40;;
74293;SDS011;64044;59.904;10.738;2024-02-16T01:55:09;0.60;;;0.40;;
74293;SDS011;64044;59.904;10.738;2024-02-16T01:57:44;1.33;;;0.45;;
74293;SDS011;64044;59.904;10.738;2024-02-16T02:00:12;0.50;;;0.40;;
74293;SDS011;64044;59.904;10.738;2024-02-16T02:02:40;0.68;;;0.32;;
74293;SDS011;64044;59.904;10.738;2024-02-16T02:05:08;1.65;;;0.20;;
74293;SDS011;64044;59.904;10.738;2024-02-16T02:07:34;0.35;;;0.20;;
74293;SDS011;64044;59.904;10.738;2024-02-16T02:10:00;0.30;;;0.30;;
74293;SDS011;64044;59.904;10.738;2024-02-16T02:12:26;0.30;;;0.30;;
74293;SDS011;64044;59.904;10.738;2024-02-16T02:14:51;0.30;;;0.30;;
74293;SDS011;64044;59.904;10.738;2024-02-16T02:17:18;0.30;;;0.20;;
74293;SDS011;64044;59.904;10.738;2024-02-16T02:19:45;0.32;;;0.22;;
74293;SDS011;64044;59.904;10.738;2024-02-16T02:22:18;0.28;;;0.28;;
74293;SDS011;64044;59.904;10.738;2024-02-16T02:24:47;2.00;;;0.30;;
74293;SDS011;64044;59.904;10.738;2024-02-16T02:27:14;0.28;;;0.25;;
74293;SDS011;64044;59.904;10.738;2024-02-16T02:29:41;2.70;;;0.30;;
74293;SDS011;64044;59.904;10.738;2024-02-16T02:32:07;0.38;;;0.38;;
74293;SDS011;64044;59.904;10.738;2024-02-16T02:34:33;0.63;;;0.10;;
74293;SDS011;64044;59.904;10.738;2024-02-16T02:36:59;0.93;;;0.35;;
74293;SDS011;64044;59.904;10.738;2024-02-16T02:39:25;0.47;;;0.28;;
74293;SDS011;64044;59.904;10.738;2024-02-16T02:41:51;0.40;;;0.30;;
74293;SDS011;64044;59.904;10.738;2024-02-16T02:44:17;1.05;;;0.20;;
74293;SDS011;64044;59.904;10.738;2024-02-16T02:46:44;0.57;;;0.28;;
74293;SDS011;64044;59.904;10.738;2024-02-16T02:49:10;0.38;;;0.30;;
74293;SDS011;64044;59.904;10.738;2024-02-16T02:51:35;2.80;;;0.30;;
74293;SDS011;64044;59.904;10.738;2024-02-16T02:54:01;1.27;;;0.52;;
74293;SDS011;64044;59.904;10.738;2024-02-16T02:56:27;1.52;;;0.50;;
74293;SDS011;64044;59.904;10.738;2024-02-16T02:58:52;0.75;;;0.40;;
74293;SDS011;64044;59.904;10.738;2024-02-16T03:01:18;1.92;;;0.63;;
74293;SDS011;64044;59.904;10.738;2024-02-16T03:03:47;0.40;;;0.30;;
74293;SDS011;64044;59.904;10.738;2024-02-16T03:06:13;1.42;;;0.30;;
74293;SDS011;64044;59.904;10.738;2024-02-16T03:08:46;1.67;;;0.30;;
74293;SDS011;64044;59.904;10.738;2024-02-16T03:11:12;0.55;;;0.22;;
74293;SDS011;64044;59.904;10.738;2024-02-16T03:13:37;0.47;;;0.20;;
74293;SDS011;64044;59.904;10.738;2024-02-16T03:16:03;1.25;;;0.40;;
74293;SDS011;64044;59.904;10.738;2024-02-16T03:18:30;2.42;;;0.50;;
74293;SDS011;64044;59.904;10.738;2024-02-16T03:20:57;0.93;;;0.32;;
74293;SDS011;64044;59.904;10.738;2024-02-16T03:23:23;0.65;;;0.30;;
74293;SDS011;64044;59.904;10.738;2024-02-16T03:25:48;1.27;;;0.50;;
74293;SDS011;64044;59.904;10.738;2024-02-16T03:28:14;1.17;;;0.22;;
74293;SDS011;64044;59.904;10.738;2024-02-16T03:30:41;0.73;;;0.20;;
74293;SDS011;64044;59.904;10.738;2024-02-16T03:33:08;0.20;;;0.20;;
74293;SDS011;64044;59.904;10.738;2024-02-16T03:38:25;2.13;;;0.40;;
74293;SDS011;64044;59.904;10.738;2024-02-16T03:40:51;0.70;;;0.40;;
74293;SDS011;64044;59.904;10.738;2024-02-16T03:43:17;0.77;;;0.22;;
74293;SDS011;64044;59.904;10.738;2024-02-16T03:45:42;0.40;;;0.30;;
74293;SDS011;64044;59.904;10.738;2024-02-16T03:48:08;0.85;;;0.28;;
74293;SDS011;64044;59.904;10.738;2024-02-16T03:50:34;0.82;;;0.30;;
74293;SDS011;64044;59.904;10.738;2024-02-16T03:53:00;0.35;;;0.22;;
74293;SDS011;64044;59.904;10.738;2024-02-16T03:55:26;0.30;;;0.20;;
74293;SDS011;64044;59.904;10.738;2024-02-16T03:57:51;0.20;;;0.20;;
74293;SDS011;64044;59.904;10.738;2024-02-16T04:00:17;0.20;;;0.20;;
74293;SDS011;64044;59.904;10.738;2024-02-16T04:02:43;3.53;;;0.57;;
74293;SDS011;64044;59.904;10.738;2024-02-16T04:05:10;1.75;;;0.43;;
74293;SDS011;64044;59.904;10.738;2024-02-16T04:07:36;0.95;;;0.30;;
74293;SDS011;64044;59.904;10.738;2024-02-16T04:10:02;0.20;;;0.20;;
74293;SDS011;64044;59.904;10.738;2024-02-16T04:12:32;0.22;;;0.22;;
74293;SDS011;64044;59.904;10.738;2024-02-16T04:14:57;0.40;;;0.30;;
74293;SDS011;64044;59.904;10.738;2024-02-16T04:17:23;0.70;;;0.40;;
74293;SDS011;64044;59.904;10.738;2024-02-16T04:19:49;0.55;;;0.28;;
74293;SDS011;64044;59.904;10.738;2024-02-16T04:22:15;2.22;;;0.30;;
74293;SDS011;64044;59.904;10.738;2024-02-16T04:24:40;0.30;;;0.10;;
74293;SDS011;64044;59.904;10.738;2024-02-16T04:27:06;0.40;;;0.20;;
74293;SDS011;64044;59.904;10.738;2024-02-16T04:29:32;1.40;;;0.52;;
74293;SDS011;64044;59.904;10.738;2024-02-16T04:31:57;0.17;;;0.17;;
74293;SDS011;64044;59.904;10.738;2024-02-16T04:34:23;0.88;;;0.30;;
74293;SDS011;64044;59.904;10.738;2024-02-16T04:36:49;0.22;;;0.20;;
74293;SDS011;64044;59.904;10.738;2024-02-16T04:39:15;0.20;;;0.20;;
74293;SDS011;64044;59.904;10.738;2024-02-16T04:41:42;2.00;;;0.20;;
74293;SDS011;64044;59.904;10.738;2024-02-16T04:44:08;0.73;;;0.38;;
74293;SDS011;64044;59.904;10.738;2024-02-16T04:46:33;2.03;;;0.30;;
74293;SDS011;64044;59.904;10.738;2024-02-16T04:48:59;1.10;;;0.40;;
74293;SDS011;64044;59.904;10.738;2024-02-16T04:51:25;0.77;;;0.20;;
74293;SDS011;64044;59.904;10.738;2024-02-16T04:53:50;0.93;;;0.32;;
74293;SDS011;64044;59.904;10.738;2024-02-16T04:56:16;1.77;;;0.47;;
74293;SDS011;64044;59.904;10.738;2024-02-16T04:58:42;3.53;;;0.40;;
74293;SDS011;64044;59.904;10.738;2024-02-16T05:01:08;0.47;;;0.30;;
74293;SDS011;64044;59.904;10.738;2024-02-16T05:03:33;0.30;;;0.30;;
74293;SDS011;64044;59.904;10.738;2024-02-16T05:06:00;0.50;;;0.20;;
74293;SDS011;64044;59.904;10.738;2024-02-16T05:08:25;0.20;;;0.20;;
74293;SDS011;64044;59.904;10.738;2024-02-16T05:10:51;0.90;;;0.20;;
74293;SDS011;64044;59.904;10.738;2024-02-16T05:13:17;1.02;;;0.50;;
74293;SDS011;64044;59.904;10.738;2024-02-16T05:15:43;0.93;;;0.20;;
74293;SDS011;64044;59.904;10.738;2024-02-16T05:18:08;1.13;;;0.40;;
74293;SDS011;64044;59.904;10.738;2024-02-16T05:20:37;2.17;;;0.55;;
74293;SDS011;64044;59.904;10.738;2024-02-16T05:23:03;0.45;;;0.32;;
74293;SDS011;64044;59.904;10.738;2024-02-16T05:25:29;0.43;;;0.30;;
74293;SDS011;64044;59.904;10.738;2024-02-16T05:27:55;0.30;;;0.20;;
74293;SDS011;64044;59.904;10.738;2024-02-16T05:30:20;0.40;;;0.40;;
74293;SDS011;64044;59.904;10.738;2024-02-16T05:32:46;1.40;;;0.40;;
74293;SDS011;64044;59.904;10.738;2024-02-16T05:35:12;1.02;;;0.90;;
74293;SDS011;64044;59.904;10.738;2024-02-16T05:37:43;0.50;;;0.50;;
74293;SDS011;64044;59.904;10.738;2024-02-16T05:40:10;0.40;;;0.40;;
74293;SDS011;64044;59.904;10.738;2024-02-16T05:42:55;0.85;;;0.45;;
74293;SDS011;64044;59.904;10.738;2024-02-16T05:45:24;1.63;;;0.60;;
74293;SDS011;64044;59.904;10.738;2024-02-16T05:47:53;2.30;;;0.63;;
74293;SDS011;64044;59.904;10.738;2024-02-16T05:50:20;1.15;;;0.55;;
74293;SDS011;64044;59.904;10.738;2024-02-16T05:52:46;1.00;;;0.40;;
74293;SDS011;64044;59.904;10.738;2024-02-16T05:55:12;1.23;;;0.32;;
74293;SDS011;64044;59.904;10.738;2024-02-16T05:57:38;1.23;;;0.40;;
74293;SDS011;64044;59.904;10.738;2024-02-16T06:00:04;0.82;;;0.40;;
74293;SDS011;64044;59.904;10.738;2024-02-16T06:02:32;0.90;;;0.52;;
74293;SDS011;64044;59.904;10.738;2024-02-16T06:04:58;2.25;;;0.32;;
74293;SDS011;64044;59.904;10.738;2024-02-16T06:07:25;5.63;;;0.50;;
74293;SDS011;64044;59.904;10.738;2024-02-16T06:09:50;0.65;;;0.40;;
74293;SDS011;64044;59.904;10.738;2024-02-16T06:12:16;1.88;;;1.20;;
74293;SDS011;64044;59.904;10.738;2024-02-16T06:14:42;1.40;;;1.30;;
74293;SDS011;64044;59.904;10.738;2024-02-16T06:17:08;1.83;;;1.40;;
74293;SDS011;64044;59.904;10.738;2024-02-16T06:19:34;2.85;;;1.42;;
74293;SDS011;64044;59.904;10.738;2024-02-16T06:22:03;1.42;;;1.10;;
74293;SDS011;64044;59.904;10.738;2024-02-16T06:24:28;2.50;;;1.10;;
74293;SDS011;64044;59.904;10.738;2024-02-16T06:26:54;1.60;;;0.80;;
74293;SDS011;64044;59.904;10.738;2024-02-16T06:29:20;3.63;;;0.98;;
74293;SDS011;64044;59.904;10.738;2024-02-16T06:31:46;1.17;;;0.85;;
74293;SDS011;64044;59.904;10.738;2024-02-16T06:34:15;1.23;;;0.90;;
74293;SDS011;64044;59.904;10.738;2024-02-16T06:36:41;1.88;;;1.08;;
74293;SDS011;64044;59.904;10.738;2024-02-16T06:39:07;1.50;;;1.00;;
74293;SDS011;64044;59.904;10.738;2024-02-16T06:41:35;1.70;;;0.93;;
74293;SDS011;64044;59.904;10.738;2024-02-16T06:44:00;2.05;;;0.98;;
74293;SDS011;64044;59.904;10.738;2024-02-16T06:46:26;0.98;;;0.88;;
74293;SDS011;64044;59.904;10.738;2024-02-16T06:48:54;2.35;;;1.20;;
74293;SDS011;64044;59.904;10.738;2024-02-16T06:51:24;0.88;;;0.88;;
74293;SDS011;64044;59.904;10.738;2024-02-16T06:53:51;1.27;;;1.05;;
74293;SDS011;64044;59.904;10.738;2024-02-16T06:56:17;0.60;;;0.60;;
74293;SDS011;64044;59.904;10.738;2024-02-16T06:58:43;1.80;;;1.05;;
74293;SDS011;64044;59.904;10.738;2024-02-16T07:01:15;3.90;;;1.23;;
74293;SDS011;64044;59.904;10.738;2024-02-16T07:06:09;0.90;;;0.90;;
74293;SDS011;64044;59.904;10.738;2024-02-16T07:08:38;1.63;;;0.70;;
74293;SDS011;64044;59.904;10.738;2024-02-16T07:11:04;2.00;;;0.95;;
74293;SDS011;64044;59.904;10.738;2024-02-16T07:13:31;1.67;;;1.30;;
74293;SDS011;64044;59.904;10.738;2024-02-16T07:15:58;1.85;;;1.50;;
74293;SDS011;64044;59.904;10.738;2024-02-16T07:18:24;1.73;;;1.42;;
74293;SDS011;64044;59.904;10.738;2024-02-16T07:20:49;1.67;;;1.20;;
74293;SDS011;64044;59.904;10.738;2024-02-16T07:23:15;4.03;;;1.48;;
74293;SDS011;64044;59.904;10.738;2024-02-16T07:25:41;2.53;;;1.10;;
74293;SDS011;64044;59.904;10.738;2024-02-16T07:28:07;1.40;;;1.30;;
74293;SDS011;64044;59.904;10.738;2024-02-16T07:30:34;1.58;;;1.08;;
74293;SDS011;64044;59.904;10.738;2024-02-16T07:33:01;1.23;;;1.13;;
74293;SDS011;64044;59.904;10.738;2024-02-16T07:35:27;1.60;;;1.10;;
74293;SDS011;64044;59.904;10.738;2024-02-16T07:37:53;1.38;;;1.25;;
74293;SDS011;64044;59.904;10.738;2024-02-16T07:40:19;2.35;;;1.50;;
74293;SDS011;64044;59.904;10.738;2024-02-16T07:42:45;2.08;;;1.88;;
74293;SDS011;64044;59.904;10.738;2024-02-16T07:45:11;2.85;;;1.80;;
74293;SDS011;64044;59.904;10.738;2024-02-16T07:47:40;0.90;;;0.90;;
74293;SDS011;64044;59.904;10.738;2024-02-16T07:50:07;0.95;;;0.85;;
74293;SDS011;64044;59.904;10.738;2024-02-16T07:52:33;1.20;;;0.75;;
74293;SDS011;64044;59.904;10.738;2024-02-16T07:54:58;5.28;;;0.93;;
74293;SDS011;64044;59.904;10.738;2024-02-16T07:57:24;0.98;;;0.80;;
74293;SDS011;64044;59.904;10.738;2024-02-16T07:59:50;0.80;;;0.80;;
74293;SDS011;64044;59.904;10.738;2024-02-16T08:02:16;1.90;;;1.65;;
74293;SDS011;64044;59.904;10.738;2024-02-16T08:04:43;1.95;;;1.50;;
74293;SDS011;64044;59.904;10.738;2024-02-16T08:07:12;5.40;;;3.47;;
74293;SDS011;64044;59.904;10.738;2024-02-16T08:09:37;13.65;;;7.47;;
74293;SDS011;64044;59.904;10.738;2024-02-16T08:12:04;5.80;;;3.08;;
74293;SDS011;64044;59.904;10.738;2024-02-16T08:14:31;1.83;;;1.52;;
74293;SDS011;64044;59.904;10.738;2024-02-16T08:16:57;2.83;;;1.50;;
74293;SDS011;64044;59.904;10.738;2024-02-16T08:19:23;1.55;;;1.10;;
74293;SDS011;64044;59.904;10.738;2024-02-16T08:21:56;1.52;;;1.38;;
74293;SDS011;64044;59.904;10.738;2024-02-16T08:24:21;3.88;;;1.80;;
74293;SDS011;64044;59.904;10.738;2024-02-16T08:26:47;3.08;;;1.40;;
74293;SDS011;64044;59.904;10.738;2024-02-16T08:29:13;1.38;;;1.27;;
74293;SDS011;64044;59.904;10.738;2024-02-16T08:31:38;1.67;;;1.30;;
74293;SDS011;64044;59.904;10.738;2024-02-16T08:34:04;1.77;;;1.45;;
74293;SDS011;64044;59.904;10.738;2024-02-16T08:36:32;4.65;;;2.10;;
74293;SDS011;64044;59.904;10.738;2024-02-16T08:38:59;2.42;;;2.03;;
74293;SDS011;64044;59.904;10.738;2024-02-16T08:41:25;3.60;;;2.03;;
74293;SDS011;64044;59.904;10.738;2024-02-16T08:43:50;2.58;;;1.83;;
74293;SDS011;64044;59.904;10.738;2024-02-16T08:46:16;2.97;;;1.90;;
74293;SDS011;64044;59.904;10.738;2024-02-16T08:48:44;2.20;;;1.83;;
74293;SDS011;64044;59.904;10.738;2024-02-16T08:51:10;4.07;;;2.35;;
74293;SDS011;64044;59.904;10.738;2024-02-16T08:53:36;1.92;;;1.67;;
74293;SDS011;64044;59.904;10.738;2024-02-16T08:56:02;3.88;;;2.30;;
74293;SDS011;64044;59.904;10.738;2024-02-16T08:58:27;3.20;;;1.88;;
74293;SDS011;64044;59.904;10.738;2024-02-16T09:00:53;1.83;;;1.10;;
74293;SDS011;64044;59.904;10.738;2024-02-16T09:03:19;0.93;;;0.93;;
74293;SDS011;64044;59.904;10.738;2024-02-16T09:05:45;1.38;;;1.13;;
74293;SDS011;64044;59.904;10.738;2024-02-16T09:08:10;1.73;;;1.20;;
74293;SDS011;64044;59.904;10.738;2024-02-16T09:10:36;1.13;;;0.90;;
74293;SDS011;64044;59.904;10.738;2024-02-16T09:13:02;1.63;;;0.80;;
74293;SDS011;64044;59.904;10.738;2024-02-16T09:15:28;1.20;;;1.02;;
74293;SDS011;64044;59.904;10.738;2024-02-16T09:17:54;1.00;;;0.80;;
74293;SDS011;64044;59.904;10.738;2024-02-16T09:20:19;0.75;;;0.75;;
74293;SDS011;64044;59.904;10.738;2024-02-16T09:22:47;1.55;;;0.80;;
74293;SDS011;64044;59.904;10.738;2024-02-16T09:25:14;0.90;;;0.70;;
74293;SDS011;64044;59.904;10.738;2024-02-16T09:27:40;2.85;;;0.70;;
74293;SDS011;64044;59.904;10.738;2024-02-16T09:30:10;1.15;;;0.70;;
74293;SDS011;64044;59.904;10.738;2024-02-16T09:32:40;1.20;;;0.77;;
74293;SDS011;64044;59.904;10.738;2024-02-16T09:35:07;1.25;;;0.70;;
74293;SDS011;64044;59.904;10.738;2024-02-16T09:37:34;0.88;;;0.57;;
74293;SDS011;64044;59.904;10.738;2024-02-16T09:40:02;0.60;;;0.60;;
74293;SDS011;64044;59.904;10.738;2024-02-16T09:42:30;2.88;;;1.23;;
74293;SDS011;64044;59.904;10.738;2024-02-16T09:44:57;1.35;;;0.80;;
74293;SDS011;64044;59.904;10.738;2024-02-16T09:47:24;2.60;;;1.00;;
74293;SDS011;64044;59.904;10.738;2024-02-16T09:49:55;2.08;;;0.65;;
74293;SDS011;64044;59.904;10.738;2024-02-16T09:52:21;2.20;;;0.90;;
74293;SDS011;64044;59.904;10.738;2024-02-16T09:54:48;7.53;;;1.50;;
74293;SDS011;64044;59.904;10.738;2024-02-16T09:57:18;4.55;;;0.90;;
74293;SDS011;64044;59.904;10.738;2024-02-16T09:59:44;2.53;;;0.90;;
74293;SDS011;64044;59.904;10.738;2024-02-16T10:02:11;2.40;;;0.68;;
74293;SDS011;64044;59.904;10.738;2024-02-16T10:04:37;1.73;;;1.02;;
74293;SDS011;64044;59.904;10.738;2024-02-16T10:07:03;2.65;;;0.90;;
74293;SDS011;64044;59.904;10.738;2024-02-16T10:09:33;2.13;;;0.80;;
74293;SDS011;64044;59.904;10.738;2024-02-16T10:11:59;1.38;;;0.75;;
74293;SDS011;64044;59.904;10.738;2024-02-16T10:14:25;1.45;;;0.75;;
74293;SDS011;64044;59.904;10.738;2024-02-16T10:17:02;2.60;;;0.85;;
74293;SDS011;64044;59.904;10.738;2024-02-16T10:19:31;0.80;;;0.68;;
74293;SDS011;64044;59.904;10.738;2024-02-16T10:22:07;0.90;;;0.75;;
74293;SDS011;64044;59.904;10.738;2024-02-16T10:24:37;1.73;;;0.75;;
74293;SDS011;64044;59.904;10.738;2024-02-16T10:27:05;1.05;;;0.70;;
74293;SDS011;64044;59.904;10.738;2024-02-16T10:29:32;1.20;;;0.95;;
74293;SDS011;64044;59.904;10.738;2024-02-16T10:31:59;0.95;;;0.85;;
74293;SDS011;64044;59.904;10.738;2024-02-16T10:34:25;1.45;;;0.68;;
74293;SDS011;64044;59.904;10.738;2024-02-16T10:36:54;1.02;;;0.90;;
74293;SDS011;64044;59.904;10.738;2024-02-16T10:39:22;1.17;;;0.65;;
74293;SDS011;64044;59.904;10.738;2024-02-16T10:41:49;2.08;;;0.82;;
74293;SDS011;64044;59.904;10.738;2024-02-16T10:44:17;1.55;;;0.90;;
74293;SDS011;64044;59.904;10.738;2024-02-16T10:46:43;1.65;;;0.70;;
74293;SDS011;64044;59.904;10.738;2024-02-16T10:49:10;1.48;;;0.57;;
74293;SDS011;64044;59.904;10.738;2024-02-16T10:51:41;1.00;;;0.88;;
74293;SDS011;64044;59.904;10.738;2024-02-16T10:54:13;2.60;;;0.82;;
74293;SDS011;64044;59.904;10.738;2024-02-16T10:56:42;2.20;;;0.90;;
74293;SDS011;64044;59.904;10.738;2024-02-16T10:59:09;2.78;;;1.00;;
74293;SDS011;64044;59.904;10.738;2024-02-16T11:01:39;5.80;;;0.90;;
74293;SDS011;64044;59.904;10.738;2024-02-16T11:04:07;2.10;;;0.88;;
74293;SDS011;64044;59.904;10.738;2024-02-16T11:12:06;1.67;;;1.08;;
74293;SDS011;64044;59.904;10.738;2024-02-16T11:17:10;1.92;;;0.90;;
74293;SDS011;64044;59.904;10.738;2024-02-16T11:19:44;2.10;;;1.15;;
74293;SDS011;64044;59.904;10.738;2024-02-16T11:22:14;1.77;;;0.88;;
74293;SDS011;64044;59.904;10.738;2024-02-16T11:24:45;2.85;;;1.30;;
74293;SDS011;64044;59.904;10.738;2024-02-16T11:27:12;3.05;;;1.25;;
74293;SDS011;64044;59.904;10.738;2024-02-16T11:29:44;2.25;;;1.00;;
74293;SDS011;64044;59.904;10.738;2024-02-16T11:32:11;2.28;;;1.15;;
74293;SDS011;64044;59.904;10.738;2024-02-16T11:34:38;3.25;;;1.17;;
74293;SDS011;64044;59.904;10.738;2024-02-16T11:37:04;1.40;;;1.13;;
74293;SDS011;64044;59.904;10.738;2024-02-16T11:39:31;1.83;;;1.00;;
74293;SDS011;64044;59.904;10.738;2024-02-16T11:42:05;1.58;;;1.17;;
74293;SDS011;64044;59.904;10.738;2024-02-16T11:44:33;1.65;;;0.90;;
74293;SDS011;64044;59.904;10.738;2024-02-16T11:47:01;2.15;;;1.20;;
74293;SDS011;64044;59.904;10.738;2024-02-16T11:49:28;1.38;;;0.90;;
74293;SDS011;64044;59.904;10.738;2024-02-16T11:51:55;2.92;;;1.27;;
74293;SDS011;64044;59.904;10.738;2024-02-16T11:54:29;1.27;;;1.17;;
74293;SDS011;64044;59.904;10.738;2024-02-16T11:56:56;1.35;;;1.02;;
74293;SDS011;64044;59.904;10.738;2024-02-16T11:59:23;1.23;;;1.00;;
74293;SDS011;64044;59.904;10.738;2024-02-16T12:04:28;5.32;;;1.67;;
74293;SDS011;64044;59.904;10.738;2024-02-16T12:06:59;1.45;;;1.00;;
74293;SDS011;64044;59.904;10.738;2024-02-16T12:09:26;3.65;;;1.20;;
74293;SDS011;64044;59.904;10.738;2024-02-16T12:11:52;1.98;;;1.25;;
74293;SDS011;64044;59.904;10.738;2024-02-16T12:14:20;2.47;;;0.98;;
74293;SDS011;64044;59.904;10.738;2024-02-16T12:16:48;1.75;;;1.33;;
74293;SDS011;64044;59.904;10.738;2024-02-16T12:19:15;2.40;;;1.27;;
74293;SDS011;64044;59.904;10.738;2024-02-16T12:21:41;2.75;;;1.63;;
74293;SDS011;64044;59.904;10.738;2024-02-16T12:24:07;2.03;;;1.00;;
74293;SDS011;64044;59.904;10.738;2024-02-16T12:26:33;3.53;;;1.35;;
74293;SDS011;64044;59.904;10.738;2024-02-16T12:28:58;4.40;;;1.40;;
74293;SDS011;64044;59.904;10.738;2024-02-16T12:31:24;1.83;;;1.08;;
74293;SDS011;64044;59.904;10.738;2024-02-16T12:33:51;3.10;;;1.38;;
74293;SDS011;64044;59.904;10.738;2024-02-16T12:36:17;3.58;;;1.17;;
74293;SDS011;64044;59.904;10.738;2024-02-16T12:38:43;4.90;;;1.58;;
74293;SDS011;64044;59.904;10.738;2024-02-16T12:41:09;2.85;;;1.20;;
74293;SDS011;64044;59.904;10.738;2024-02-16T12:43:35;3.13;;;1.58;;
74293;SDS011;64044;59.904;10.738;2024-02-16T12:46:00;1.58;;;1.20;;
74293;SDS011;64044;59.904;10.738;2024-02-16T12:48:29;2.40;;;1.13;;
74293;SDS011;64044;59.904;10.738;2024-02-16T12:50:55;2.67;;;1.42;;
74293;SDS011;64044;59.904;10.738;2024-02-16T12:53:22;4.35;;;1.42;;
74293;SDS011;64044;59.904;10.738;2024-02-16T12:55:49;4.15;;;1.40;;
74293;SDS011;64044;59.904;10.738;2024-02-16T12:58:15;3.63;;;1.70;;
74293;SDS011;64044;59.904;10.738;2024-02-16T13:00:41;3.83;;;1.20;;
74293;SDS011;64044;59.904;10.738;2024-02-16T13:03:07;3.17;;;1.58;;
74293;SDS011;64044;59.904;10.738;2024-02-16T13:05:33;4.80;;;1.50;;
74293;SDS011;64044;59.904;10.738;2024-02-16T13:07:59;2.72;;;1.30;;
74293;SDS011;64044;59.904;10.738;2024-02-16T13:10:25;2.05;;;1.35;;
74293;SDS011;64044;59.904;10.738;2024-02-16T13:12:51;2.40;;;1.30;;
74293;SDS011;64044;59.904;10.738;2024-02-16T13:15:16;2.65;;;1.40;;
74293;SDS011;64044;59.904;10.738;2024-02-16T13:17:42;3.90;;;1.58;;
74293;SDS011;64044;59.904;10.738;2024-02-16T13:20:08;2.85;;;1.42;;
74293;SDS011;64044;59.904;10.738;2024-02-16T13:22:37;2.00;;;1.25;;
74293;SDS011;64044;59.904;10.738;2024-02-16T13:25:03;3.10;;;1.40;;
74293;SDS011;64044;59.904;10.738;2024-02-16T13:27:31;2.75;;;1.90;;
74293;SDS011;64044;59.904;10.738;2024-02-16T13:29:57;1.98;;;1.58;;
74293;SDS011;64044;59.904;10.738;2024-02-16T13:32:23;3.15;;;2.25;;
74293;SDS011;64044;59.904;10.738;2024-02-16T13:34:49;3.33;;;2.05;;
74293;SDS011;64044;59.904;10.738;2024-02-16T13:37:14;3.80;;;1.83;;
74293;SDS011;64044;59.904;10.738;2024-02-16T13:39:40;2.53;;;1.98;;
74293;SDS011;64044;59.904;10.738;2024-02-16T13:42:06;2.45;;;1.77;;
74293;SDS011;64044;59.904;10.738;2024-02-16T13:44:31;2.13;;;1.33;;
74293;SDS011;64044;59.904;10.738;2024-02-16T13:46:57;2.97;;;1.40;;
74293;SDS011;64044;59.904;10.738;2024-02-16T13:49:23;2.25;;;1.40;;
74293;SDS011;64044;59.904;10.738;2024-02-16T13:51:49;3.72;;;1.52;;
74293;SDS011;64044;59.904;10.738;2024-02-16T13:54:15;2.95;;;1.65;;
74293;SDS011;64044;59.904;10.738;2024-02-16T13:56:40;2.80;;;1.60;;
74293;SDS011;64044;59.904;10.738;2024-02-16T13:59:06;2.92;;;1.70;;
74293;SDS011;64044;59.904;10.738;2024-02-16T14:01:33;2.33;;;1.48;;
74293;SDS011;64044;59.904;10.738;2024-02-16T14:03:59;2.47;;;1.60;;
74293;SDS011;64044;59.904;10.738;2024-02-16T14:06:26;2.05;;;1.65;;
74293;SDS011;64044;59.904;10.738;2024-02-16T14:08:52;3.65;;;1.80;;
74293;SDS011;64044;59.904;10.738;2024-02-16T14:11:20;3.47;;;1.95;;
74293;SDS011;64044;59.904;10.738;2024-02-16T14:13:47;3.70;;;2.50;;
74293;SDS011;64044;59.904;10.738;2024-02-16T14:19:05;4.20;;;2.00;;
74293;SDS011;64044;59.904;10.738;2024-02-16T14:21:31;1.85;;;1.73;;
74293;SDS011;64044;59.904;10.738;2024-02-16T14:23:57;3.13;;;1.83;;
74293;SDS011;64044;59.904;10.738;2024-02-16T14:26:23;4.07;;;2.15;;
74293;SDS011;64044;59.904;10.738;2024-02-16T14:28:49;3.15;;;1.98;;
74293;SDS011;64044;59.904;10.738;2024-02-16T14:31:15;4.10;;;2.50;;
74293;SDS011;64044;59.904;10.738;2024-02-16T14:33:42;2.42;;;1.85;;
74293;SDS011;64044;59.904;10.738;2024-02-16T14:36:08;2.88;;;2.05;;
74293;SDS011;64044;59.904;10.738;2024-02-16T14:38:34;2.20;;;1.77;;
74293;SDS011;64044;59.904;10.738;2024-02-16T14:41:01;3.13;;;2.00;;
74293;SDS011;64044;59.904;10.738;2024-02-16T14:43:31;3.40;;;1.90;;
74293;SDS011;64044;59.904;10.738;2024-02-16T14:45:58;3.88;;;2.00;;
74293;SDS011;64044;59.904;10.738;2024-02-16T14:48:23;2.85;;;2.05;;